createdAt,value
2017-08-04T00:01:34.240Z,16.77
2017-08-04T00:04:02.286Z,16.81
2017-08-04T00:06:33.946Z,16.82
2017-08-04T00:09:02.826Z,16.82
2017-08-04T00:11:31.566Z,16.75
2017-08-04T00:14:01.539Z,16.69
2017-08-04T00:16:29.251Z,16.66
2017-08-04T00:18:57.359Z,16.61
2017-08-04T00:21:25.051Z,16.57
2017-08-04T00:26:27.163Z,16.47
2017-08-04T00:28:56.517Z,16.42
2017-08-04T00:31:24.611Z,16.41
2017-08-04T00:33:52.637Z,16.40
2017-08-04T00:36:22.746Z,16.42
2017-08-04T00:38:51.440Z,16.43
2017-08-04T00:41:21.707Z,16.46
2017-08-04T00:43:52.825Z,16.47
2017-08-04T00:46:21.512Z,16.48
2017-08-04T00:48:49.975Z,16.50
2017-08-04T00:51:18.394Z,16.53
2017-08-04T00:53:48.331Z,16.57
2017-08-04T00:56:16.109Z,16.56
2017-08-04T00:58:46.429Z,16.57
2017-08-04T01:01:14.687Z,16.55
2017-08-04T01:03:42.901Z,16.54
2017-08-04T01:06:10.836Z,16.51
2017-08-04T01:08:38.903Z,16.52
2017-08-04T01:11:08.135Z,16.51
2017-08-04T01:13:38.076Z,16.49
2017-08-04T01:16:05.715Z,16.47
2017-08-04T01:18:34.500Z,16.43
2017-08-04T01:21:04.171Z,16.39
2017-08-04T01:23:33.652Z,16.33
2017-08-04T01:26:02.342Z,16.30
2017-08-04T01:28:30.136Z,16.27
2017-08-04T01:30:59.103Z,16.25
2017-08-04T01:33:27.755Z,16.23
2017-08-04T01:35:56.438Z,16.24
2017-08-04T01:38:26.364Z,16.25
2017-08-04T01:40:54.747Z,16.23
2017-08-04T01:43:23.561Z,16.19
2017-08-04T01:45:51.790Z,16.16
2017-08-04T01:48:20.970Z,16.06
2017-08-04T01:50:51.752Z,16.04
2017-08-04T01:53:19.714Z,16.05
2017-08-04T01:55:47.944Z,16.04
2017-08-04T01:58:17.027Z,16.04
2017-08-04T02:00:46.725Z,16.03
2017-08-04T02:03:19.069Z,15.96
2017-08-04T02:05:48.182Z,15.91
2017-08-04T02:08:16.512Z,15.84
2017-08-04T02:10:45.251Z,15.76
2017-08-04T02:13:16.309Z,15.65
2017-08-04T02:15:44.688Z,15.55
2017-08-04T02:18:14.454Z,15.50
2017-08-04T02:20:44.403Z,15.43
2017-08-04T02:23:13.209Z,15.37
2017-08-04T02:25:42.920Z,15.31
2017-08-04T02:28:13.626Z,15.26
2017-08-04T02:30:42.050Z,15.23
2017-08-04T02:33:10.363Z,15.21
2017-08-04T02:35:38.432Z,15.16
2017-08-04T02:38:06.988Z,15.11
2017-08-04T02:40:39.745Z,15.08
2017-08-04T02:43:09.077Z,15.04
2017-08-04T02:45:37.075Z,14.99
2017-08-04T02:48:06.833Z,14.97
2017-08-04T02:50:35.336Z,14.93
2017-08-04T02:53:03.000Z,14.89
2017-08-04T02:55:30.706Z,14.86
2017-08-04T02:57:58.464Z,14.85
2017-08-04T03:00:27.853Z,14.83
2017-08-04T03:02:56.031Z,14.82
2017-08-04T03:05:25.662Z,14.80
2017-08-04T03:07:53.882Z,14.79
2017-08-04T03:10:24.210Z,14.76
2017-08-04T03:12:53.481Z,14.74
2017-08-04T03:15:22.898Z,14.72
2017-08-04T03:17:52.104Z,14.71
2017-08-04T03:20:19.761Z,14.66
2017-08-04T03:22:47.863Z,14.63
2017-08-04T03:25:16.144Z,14.58
2017-08-04T03:27:45.588Z,14.56
2017-08-04T03:30:14.852Z,14.56
2017-08-04T03:32:42.792Z,14.56
2017-08-04T03:35:10.524Z,14.55
2017-08-04T03:37:41.626Z,14.52
2017-08-04T03:40:10.902Z,14.61
2017-08-04T03:42:39.757Z,14.69
2017-08-04T03:45:07.688Z,14.79
2017-08-04T03:47:37.557Z,14.92
2017-08-04T03:50:05.669Z,15.04
2017-08-04T03:52:36.401Z,15.14
2017-08-04T03:55:05.086Z,15.23
2017-08-04T03:57:34.106Z,15.22
2017-08-04T04:00:03.289Z,15.13
2017-08-04T04:02:32.145Z,15.05
2017-08-04T04:05:02.285Z,14.99
2017-08-04T04:07:31.692Z,14.96
2017-08-04T04:10:03.032Z,14.94
2017-08-04T04:12:31.144Z,14.92
2017-08-04T04:15:01.032Z,14.90
2017-08-04T04:17:28.728Z,14.95
2017-08-04T04:19:57.842Z,14.99
2017-08-04T04:22:26.509Z,15.08
2017-08-04T04:24:54.670Z,15.25
2017-08-04T04:27:22.738Z,15.49
2017-08-04T04:29:53.135Z,15.74
2017-08-04T04:32:21.218Z,16.00
2017-08-04T04:34:49.613Z,16.27
2017-08-04T04:37:17.544Z,16.50
2017-08-04T04:39:47.209Z,16.66
2017-08-04T04:42:17.268Z,16.78
2017-08-04T04:44:45.251Z,16.90
2017-08-04T04:47:13.333Z,17.03
2017-08-04T04:49:41.075Z,17.10
2017-08-04T04:52:09.138Z,17.17
2017-08-04T04:54:38.734Z,17.19
2017-08-04T04:57:07.579Z,17.19
2017-08-04T04:59:35.370Z,17.20
2017-08-04T05:02:03.012Z,17.23
2017-08-04T05:04:32.666Z,17.23
2017-08-04T05:07:01.226Z,17.23
2017-08-04T05:09:30.978Z,17.21
2017-08-04T05:11:59.922Z,17.21
2017-08-04T05:14:28.026Z,17.22
2017-08-04T05:16:57.486Z,17.31
2017-08-04T05:21:59.922Z,17.86
2017-08-04T05:27:01.601Z,20.21
2017-08-04T05:29:29.286Z,20.88
2017-08-04T05:31:57.445Z,20.73
2017-08-04T05:34:25.064Z,20.24
2017-08-04T05:36:53.351Z,19.89
2017-08-04T05:39:21.896Z,19.51
2017-08-04T05:41:49.989Z,19.12
2017-08-04T05:44:18.773Z,18.83
2017-08-04T05:46:46.466Z,18.79
2017-08-04T05:49:14.491Z,18.88
2017-08-04T05:51:42.149Z,19.08
2017-08-04T05:54:09.846Z,19.27
2017-08-04T05:59:10.391Z,19.28
2017-08-04T06:01:40.104Z,19.29
2017-08-04T06:04:08.623Z,19.33
2017-08-04T06:06:37.930Z,19.32
2017-08-04T06:09:07.469Z,19.20
2017-08-04T06:11:35.559Z,19.11
2017-08-04T06:14:03.639Z,18.89
2017-08-04T06:16:31.976Z,18.85
2017-08-04T06:19:01.610Z,18.91
2017-08-04T06:21:30.016Z,18.90
2017-08-04T06:23:58.818Z,19.02
2017-08-04T06:26:27.615Z,19.12
2017-08-04T06:28:56.562Z,19.02
2017-08-04T06:31:25.820Z,19.27
2017-08-04T06:33:55.523Z,19.50
2017-08-04T06:36:26.923Z,19.57
2017-08-04T06:38:54.735Z,19.41
2017-08-04T06:41:23.104Z,19.37
2017-08-04T06:43:51.501Z,19.37
2017-08-04T06:46:20.545Z,19.49
2017-08-04T06:48:48.945Z,19.66
2017-08-04T06:51:17.685Z,19.92
2017-08-04T06:53:46.834Z,20.19
2017-08-04T06:56:15.003Z,20.34
2017-08-04T06:58:42.763Z,20.24
2017-08-04T07:01:11.098Z,19.96
2017-08-04T07:03:39.124Z,19.72
2017-08-04T07:06:06.717Z,19.62
2017-08-04T07:08:34.343Z,19.75
2017-08-04T07:11:04.813Z,19.87
2017-08-04T07:13:32.455Z,19.89
2017-08-04T07:16:01.457Z,19.80
2017-08-04T07:18:29.078Z,19.79
2017-08-04T07:20:57.041Z,19.98
2017-08-04T07:23:25.170Z,20.22
2017-08-04T07:25:52.790Z,20.32
2017-08-04T07:28:21.275Z,20.23
2017-08-04T07:30:50.643Z,19.97
2017-08-04T07:33:19.116Z,19.85
2017-08-04T07:35:48.786Z,19.78
2017-08-04T07:38:16.736Z,19.94
2017-08-04T07:40:45.584Z,20.56
2017-08-04T07:43:14.470Z,20.99
2017-08-04T07:45:44.423Z,21.20
2017-08-04T07:48:12.105Z,21.28
2017-08-04T07:50:40.518Z,21.02
2017-08-04T07:53:09.926Z,21.13
2017-08-04T07:55:37.666Z,21.05
2017-08-04T07:58:07.630Z,20.79
2017-08-04T08:00:36.856Z,20.78
2017-08-04T08:03:04.568Z,20.89
2017-08-04T08:05:33.040Z,20.79
2017-08-04T08:08:00.771Z,20.78
2017-08-04T08:10:28.740Z,20.86
2017-08-04T08:12:56.400Z,21.03
2017-08-04T08:15:26.094Z,21.17
2017-08-04T08:17:53.706Z,21.26
2017-08-04T08:20:23.610Z,21.30
2017-08-04T08:22:51.562Z,21.40
2017-08-04T08:25:19.557Z,21.38
2017-08-04T08:27:48.099Z,21.34
2017-08-04T08:30:16.412Z,21.46
2017-08-04T08:32:44.690Z,21.47
2017-08-04T08:35:13.705Z,21.40
2017-08-04T08:37:41.401Z,21.32
2017-08-04T08:40:09.329Z,21.29
2017-08-04T08:42:37.028Z,21.32
2017-08-04T08:45:05.338Z,21.42
2017-08-04T08:47:33.418Z,21.61
2017-08-04T08:50:03.907Z,21.72
2017-08-04T08:52:32.425Z,21.84
2017-08-04T08:55:00.208Z,22.08
2017-08-04T08:57:28.266Z,22.08
2017-08-04T08:59:56.765Z,22.02
2017-08-04T09:02:26.172Z,22.06
2017-08-04T09:04:54.765Z,21.99
2017-08-04T09:07:23.266Z,21.88
2017-08-04T09:09:52.584Z,21.78
2017-08-04T09:12:20.255Z,21.86
2017-08-04T09:14:50.734Z,22.18
2017-08-04T09:17:19.308Z,22.81
2017-08-04T09:19:48.329Z,23.12
2017-08-04T09:22:15.933Z,23.19
2017-08-04T09:24:44.369Z,23.16
2017-08-04T09:27:13.967Z,23.00
2017-08-04T09:29:42.858Z,22.79
2017-08-04T09:32:10.454Z,22.59
2017-08-04T09:34:38.089Z,22.62
2017-08-04T09:37:06.084Z,22.33
2017-08-04T09:39:33.813Z,22.19
2017-08-04T09:42:03.652Z,22.42
2017-08-04T09:44:35.609Z,22.25
2017-08-04T09:47:03.231Z,21.92
2017-08-04T09:49:30.864Z,21.67
2017-08-04T09:51:59.044Z,21.74
2017-08-04T09:54:26.663Z,21.67
2017-08-04T09:56:54.284Z,21.62
2017-08-04T09:59:22.145Z,21.55
2017-08-04T10:01:49.765Z,21.93
2017-08-04T10:04:17.648Z,22.27
2017-08-04T10:06:45.277Z,22.74
2017-08-04T10:09:13.049Z,23.12
2017-08-04T10:11:41.026Z,23.30
2017-08-04T10:14:08.635Z,23.17
2017-08-04T10:16:36.257Z,23.59
2017-08-04T10:19:03.888Z,23.90
2017-08-04T10:21:31.524Z,24.10
2017-08-04T10:23:59.143Z,23.57
2017-08-04T10:26:26.859Z,23.14
2017-08-04T10:28:54.629Z,23.04
2017-08-04T10:31:22.444Z,23.18
2017-08-04T10:33:50.312Z,23.74
2017-08-04T10:36:18.136Z,23.88
2017-08-04T10:38:46.023Z,23.52
2017-08-04T10:41:13.896Z,23.13
2017-08-04T10:43:41.780Z,22.91
2017-08-04T10:46:09.580Z,22.69
2017-08-04T10:48:37.442Z,22.69
2017-08-04T10:51:05.267Z,22.85
2017-08-04T10:53:33.092Z,22.74
2017-08-04T10:56:00.959Z,22.51
2017-08-04T10:58:28.806Z,22.55
2017-08-04T11:00:56.694Z,22.72
2017-08-04T11:03:24.518Z,22.87
2017-08-04T11:05:52.459Z,23.06
2017-08-04T11:08:20.229Z,23.48
2017-08-04T11:10:48.071Z,23.41
2017-08-04T11:13:15.813Z,23.31
2017-08-04T11:15:43.610Z,23.51
2017-08-04T11:18:11.363Z,23.75
2017-08-04T11:20:39.164Z,23.87
2017-08-04T11:23:07.033Z,24.24
2017-08-04T11:25:34.877Z,24.35
2017-08-04T11:28:02.771Z,23.98
2017-08-04T11:30:30.584Z,23.53
2017-08-04T11:32:58.372Z,22.93
2017-08-04T11:35:26.192Z,22.85
2017-08-04T11:37:54.101Z,23.47
2017-08-04T11:40:21.939Z,24.11
2017-08-04T11:42:49.746Z,24.60
2017-08-04T11:45:17.575Z,24.52
2017-08-04T11:47:45.724Z,24.29
2017-08-04T11:50:13.608Z,24.05
2017-08-04T11:52:42.222Z,24.20
2017-08-04T11:55:10.033Z,24.01
2017-08-04T11:57:37.848Z,23.66
2017-08-04T12:00:05.636Z,23.21
2017-08-04T12:02:33.423Z,22.98
2017-08-04T12:05:01.319Z,23.22
2017-08-04T12:07:29.136Z,23.40
2017-08-04T12:09:56.872Z,23.71
2017-08-04T12:12:24.764Z,24.26
2017-08-04T12:14:52.569Z,24.82
2017-08-04T12:17:20.351Z,25.00
2017-08-04T12:19:48.169Z,24.56
2017-08-04T12:22:16.039Z,24.35
2017-08-04T12:24:43.907Z,24.38
2017-08-04T12:27:11.758Z,24.38
2017-08-04T12:29:39.609Z,24.09
2017-08-04T12:32:07.530Z,23.89
2017-08-04T12:34:35.352Z,24.01
2017-08-04T12:37:03.140Z,23.92
2017-08-04T12:39:31.048Z,23.90
2017-08-04T12:41:58.875Z,24.03
2017-08-04T12:44:26.760Z,24.42
2017-08-04T12:46:54.649Z,24.50
2017-08-04T12:49:22.538Z,24.70
2017-08-04T12:51:50.372Z,24.23
2017-08-04T12:54:18.259Z,23.71
2017-08-04T12:56:46.093Z,23.75
2017-08-04T12:59:13.999Z,23.85
2017-08-04T13:01:41.806Z,24.28
2017-08-04T13:04:09.673Z,24.80
2017-08-04T13:06:37.490Z,25.02
2017-08-04T13:09:05.360Z,25.30
2017-08-04T13:11:33.300Z,25.01
2017-08-04T13:14:01.136Z,24.94
2017-08-04T13:16:29.021Z,24.76
2017-08-04T13:18:56.855Z,24.57
2017-08-04T13:21:24.753Z,24.43
2017-08-04T13:23:52.531Z,24.36
2017-08-04T13:26:20.407Z,24.25
2017-08-04T13:28:48.268Z,24.13
2017-08-04T13:31:16.148Z,24.17
2017-08-04T13:33:43.978Z,24.49
2017-08-04T13:36:11.876Z,24.30
2017-08-04T13:38:50.433Z,23.65
2017-08-04T13:41:18.328Z,23.82
2017-08-04T13:43:46.165Z,24.08
2017-08-04T13:46:13.991Z,23.98
2017-08-04T13:48:41.877Z,23.85
2017-08-04T13:51:09.708Z,23.88
2017-08-04T13:53:37.640Z,23.92
2017-08-04T13:56:05.464Z,23.67
2017-08-04T13:58:33.424Z,23.33
2017-08-04T14:01:01.307Z,23.23
2017-08-04T14:03:29.227Z,23.21
2017-08-04T14:05:57.048Z,23.39
2017-08-04T14:08:24.907Z,23.45
2017-08-04T14:10:52.765Z,23.53
2017-08-04T14:13:20.679Z,23.78
2017-08-04T14:15:48.597Z,24.43
2017-08-04T14:18:16.472Z,24.78
2017-08-04T14:20:44.320Z,24.52
2017-08-04T14:23:12.191Z,24.21
2017-08-04T14:25:40.009Z,23.89
2017-08-04T14:28:07.823Z,23.63
2017-08-04T14:30:35.719Z,23.40
2017-08-04T14:33:03.445Z,23.22
2017-08-04T14:35:31.211Z,23.01
2017-08-04T14:37:58.946Z,22.94
2017-08-04T14:40:26.819Z,22.95
2017-08-04T14:42:54.530Z,22.89
2017-08-04T14:45:22.298Z,22.82
2017-08-04T14:47:50.044Z,22.80
2017-08-04T14:50:17.828Z,22.76
2017-08-04T14:52:45.541Z,22.75
2017-08-04T14:55:13.315Z,22.96
2017-08-04T14:57:41.063Z,23.07
2017-08-04T15:00:08.823Z,23.44
2017-08-04T15:02:36.622Z,23.56
2017-08-04T15:05:04.447Z,23.45
2017-08-04T15:07:32.220Z,23.25
2017-08-04T15:09:59.983Z,23.43
2017-08-04T15:12:27.759Z,23.89
2017-08-04T15:14:55.489Z,23.87
2017-08-04T15:17:23.329Z,23.45
2017-08-04T15:19:51.046Z,23.35
2017-08-04T15:22:18.787Z,23.32
2017-08-04T15:24:46.509Z,23.26
2017-08-04T15:27:14.281Z,23.23
2017-08-04T15:29:42.014Z,23.13
2017-08-04T15:32:09.740Z,23.21
2017-08-04T15:34:37.584Z,23.56
2017-08-04T15:37:05.301Z,23.44
2017-08-04T15:39:33.107Z,23.35
2017-08-04T15:42:00.820Z,23.21
2017-08-04T15:44:28.580Z,22.87
2017-08-04T15:46:56.289Z,22.87
2017-08-04T15:49:24.206Z,22.91
2017-08-04T15:51:51.967Z,22.95
2017-08-04T15:54:19.759Z,23.04
2017-08-04T15:56:47.498Z,23.13
2017-08-04T15:59:15.298Z,23.13
2017-08-04T16:01:43.142Z,23.14
2017-08-04T16:04:11.013Z,23.14
2017-08-04T16:06:38.854Z,23.11
2017-08-04T16:09:06.746Z,22.97
2017-08-04T16:11:34.600Z,22.79
2017-08-04T16:14:02.407Z,22.50
2017-08-04T16:16:30.487Z,22.28
2017-08-04T16:18:58.352Z,22.10
2017-08-04T16:21:26.223Z,22.02
2017-08-04T16:23:53.941Z,22.06
2017-08-04T16:26:21.816Z,22.11
2017-08-04T16:28:49.662Z,22.14
2017-08-04T16:31:17.571Z,22.15
2017-08-04T16:33:45.392Z,22.02
2017-08-04T16:36:13.263Z,21.91
2017-08-04T16:38:41.091Z,21.80
2017-08-04T16:41:08.985Z,21.76
2017-08-04T16:43:36.840Z,21.81
2017-08-04T16:46:04.747Z,22.09
2017-08-04T16:48:32.624Z,22.27
2017-08-04T16:51:00.517Z,22.19
2017-08-04T16:53:28.349Z,22.05
2017-08-04T16:55:56.064Z,21.91
2017-08-04T16:58:23.866Z,21.80
2017-08-04T17:00:51.614Z,21.76
2017-08-04T17:03:19.433Z,21.69
2017-08-04T17:05:47.143Z,21.66
2017-08-04T17:08:14.922Z,21.74
2017-08-04T17:10:42.759Z,21.90
2017-08-04T17:13:10.635Z,21.93
2017-08-04T17:15:38.498Z,21.88
2017-08-04T17:18:06.377Z,21.72
2017-08-04T17:20:34.285Z,21.74
2017-08-04T17:23:02.125Z,21.94
2017-08-04T17:25:29.996Z,22.21
2017-08-04T17:27:57.858Z,22.34
2017-08-04T17:30:25.717Z,22.40
2017-08-04T17:32:53.537Z,22.42
2017-08-04T17:35:21.434Z,22.32
2017-08-04T17:37:49.283Z,22.16
2017-08-04T17:40:17.099Z,22.08
2017-08-04T17:42:44.970Z,22.09
2017-08-04T17:45:12.820Z,22.16
2017-08-04T17:47:40.685Z,22.09
2017-08-04T17:50:08.541Z,22.01
2017-08-04T17:52:36.434Z,21.91
2017-08-04T17:55:04.274Z,21.85
2017-08-04T17:57:32.220Z,21.77
2017-08-04T18:00:00.089Z,21.90
2017-08-04T18:02:39.669Z,22.69
2017-08-04T18:05:07.507Z,23.48
2017-08-04T18:07:35.379Z,24.10
2017-08-04T18:10:03.232Z,23.74
2017-08-04T18:12:31.126Z,22.53
2017-08-04T18:14:58.955Z,21.76
2017-08-04T18:17:26.865Z,21.32
2017-08-04T18:19:54.714Z,20.98
2017-08-04T18:22:22.548Z,20.77
2017-08-04T18:24:50.339Z,20.62
2017-08-04T18:27:18.183Z,20.48
2017-08-04T18:29:46.047Z,20.37
2017-08-04T18:32:13.882Z,20.26
2017-08-04T18:34:41.779Z,20.44
2017-08-04T18:37:09.609Z,20.96
2017-08-04T18:39:37.506Z,21.33
2017-08-04T18:42:05.326Z,21.45
2017-08-04T18:44:33.175Z,21.31
2017-08-04T18:47:01.020Z,20.94
2017-08-04T18:49:28.873Z,20.59
2017-08-04T18:51:56.707Z,20.32
2017-08-04T18:54:24.535Z,20.17
2017-08-04T18:56:52.424Z,20.07
2017-08-04T18:59:20.331Z,19.92
2017-08-04T19:01:48.228Z,19.73
2017-08-04T19:04:16.085Z,19.58
2017-08-04T19:06:43.947Z,19.48
2017-08-04T19:09:11.766Z,19.31
2017-08-04T19:11:39.641Z,19.16
2017-08-04T19:14:07.545Z,19.04
2017-08-04T19:16:35.452Z,18.94
2017-08-04T19:19:03.301Z,18.85
2017-08-04T19:21:31.236Z,18.79
2017-08-04T19:23:58.986Z,18.73
2017-08-04T19:26:26.859Z,18.65
2017-08-04T19:28:54.704Z,18.63
2017-08-04T19:31:22.557Z,18.55
2017-08-04T19:33:50.416Z,18.49
2017-08-04T19:36:18.252Z,18.43
2017-08-04T19:38:46.117Z,18.39
2017-08-04T19:41:13.945Z,18.33
2017-08-04T19:43:41.803Z,18.24
2017-08-04T19:46:09.611Z,18.15
2017-08-04T19:48:37.466Z,18.04
2017-08-04T19:51:05.291Z,17.96
2017-08-04T19:53:33.164Z,17.87
2017-08-04T19:56:00.985Z,17.76
2017-08-04T19:58:28.967Z,17.65
2017-08-04T20:00:56.854Z,17.57
2017-08-04T20:03:24.713Z,17.50
2017-08-04T20:05:52.539Z,17.48
2017-08-04T20:08:20.355Z,17.45
2017-08-04T20:10:48.222Z,17.44
2017-08-04T20:13:16.044Z,17.45
2017-08-04T20:15:43.915Z,17.45
2017-08-04T20:18:11.743Z,17.44
2017-08-04T20:20:39.605Z,17.43
2017-08-04T20:23:07.420Z,17.40
2017-08-04T20:25:35.278Z,17.36
2017-08-04T20:28:03.115Z,17.31
2017-08-04T20:30:30.976Z,17.26
2017-08-04T20:32:58.808Z,17.19
2017-08-04T20:35:26.708Z,17.11
2017-08-04T20:37:54.517Z,17.06
2017-08-04T20:40:22.367Z,17.04
2017-08-04T20:42:50.178Z,16.98
2017-08-04T20:45:17.977Z,16.91
2017-08-04T20:47:45.859Z,16.84
2017-08-04T20:50:13.669Z,16.80
2017-08-04T20:52:41.547Z,16.74
2017-08-04T20:55:09.345Z,16.69
2017-08-04T20:57:37.216Z,16.61
2017-08-04T21:00:05.151Z,16.56
2017-08-04T21:02:33.020Z,16.51
2017-08-04T21:05:00.842Z,16.47
2017-08-04T21:07:28.732Z,16.44
2017-08-04T21:09:56.532Z,16.40
2017-08-04T21:12:24.391Z,16.37
2017-08-04T21:14:52.217Z,16.34
2017-08-04T21:17:20.091Z,16.27
2017-08-04T21:19:47.898Z,16.25
2017-08-04T21:22:15.724Z,16.23
2017-08-04T21:24:43.512Z,16.22
2017-08-04T21:27:11.325Z,16.21
2017-08-04T21:29:39.181Z,16.21
2017-08-04T21:32:06.976Z,16.23
2017-08-04T21:34:34.825Z,16.22
2017-08-04T21:37:02.638Z,16.19
2017-08-04T21:39:30.515Z,16.14
2017-08-04T21:41:58.354Z,16.12
2017-08-04T21:44:26.226Z,16.12
2017-08-04T21:46:54.062Z,16.11
2017-08-04T21:49:21.948Z,16.07
2017-08-04T21:51:49.757Z,16.04
2017-08-04T21:54:17.579Z,15.99
2017-08-04T21:56:45.462Z,15.97
2017-08-04T21:59:13.202Z,15.93
2017-08-04T22:01:40.970Z,15.92
2017-08-04T22:04:08.781Z,15.89
2017-08-04T22:06:36.653Z,15.89
2017-08-04T22:09:04.556Z,15.89
2017-08-04T22:11:32.432Z,15.88
2017-08-04T22:14:00.152Z,15.86
2017-08-04T22:16:27.981Z,15.84
2017-08-04T22:18:55.852Z,15.82
2017-08-04T22:21:23.672Z,15.79
2017-08-04T22:23:51.431Z,15.77
2017-08-04T22:26:19.270Z,15.76
2017-08-04T22:28:47.115Z,15.73
2017-08-04T22:31:14.933Z,15.69
2017-08-04T22:33:42.803Z,15.61
2017-08-04T22:36:10.676Z,15.53
2017-08-04T22:38:38.536Z,15.49
2017-08-04T22:41:06.347Z,15.48
2017-08-04T22:43:34.148Z,15.49
2017-08-04T22:46:01.998Z,15.48
2017-08-04T22:48:29.812Z,15.48
2017-08-04T22:50:57.665Z,15.41
2017-08-04T22:53:25.487Z,15.33
2017-08-04T22:55:53.342Z,15.29
2017-08-04T22:58:21.218Z,15.28
2017-08-04T23:00:49.069Z,15.28
2017-08-04T23:03:16.895Z,15.29
2017-08-04T23:05:44.747Z,15.30
2017-08-04T23:08:12.574Z,15.32
2017-08-04T23:10:40.432Z,15.38
2017-08-04T23:13:08.149Z,15.42
2017-08-04T23:15:35.951Z,15.45
2017-08-04T23:18:03.813Z,15.46
2017-08-04T23:20:31.612Z,15.45
2017-08-04T23:22:59.463Z,15.41
2017-08-04T23:25:27.300Z,15.35
2017-08-04T23:27:55.194Z,15.33
2017-08-04T23:30:23.032Z,15.29
2017-08-04T23:32:50.856Z,15.25
2017-08-04T23:35:18.656Z,15.22
2017-08-04T23:37:46.521Z,15.24
2017-08-04T23:40:14.339Z,15.24
2017-08-04T23:42:42.174Z,15.24
2017-08-04T23:45:09.969Z,15.25
2017-08-04T23:47:37.824Z,15.22
2017-08-04T23:50:05.635Z,15.21
2017-08-04T23:52:33.437Z,15.18
2017-08-04T23:55:01.272Z,15.18
2017-08-04T23:57:29.091Z,15.21
2017-08-04T23:59:56.983Z,15.21
